sensor_id;sensor_type;location;lat;lon;timestamp;temperature;humidity
58363;DHT22;54977;51.510;7.522;2022-11-15T00:00:17;10.50;74.00
58363;DHT22;54977;51.510;7.522;2022-11-15T00:05:19;10.60;74.30
58363;DHT22;54977;51.510;7.522;2022-11-15T00:10:21;10.70;75.20
58363;DHT22;54977;51.510;7.522;2022-11-15T00:15:24;10.70;75.40
58363;DHT22;54977;51.510;7.522;2022-11-15T00:20:26;10.80;75.50
58363;DHT22;54977;51.510;7.522;2022-11-15T00:25:28;10.70;76.10
58363;DHT22;54977;51.510;7.522;2022-11-15T00:30:31;10.80;76.50
58363;DHT22;54977;51.510;7.522;2022-11-15T00:35:33;10.90;76.20
58363;DHT22;54977;51.510;7.522;2022-11-15T00:40:35;11.10;76.50
58363;DHT22;54977;51.510;7.522;2022-11-15T00:45:38;11.10;76.70
58363;DHT22;54977;51.510;7.522;2022-11-15T00:50:40;11.30;77.10
58363;DHT22;54977;51.510;7.522;2022-11-15T00:55:42;11.30;77.10
58363;DHT22;54977;51.510;7.522;2022-11-15T01:00:45;11.50;76.90
58363;DHT22;54977;51.510;7.522;2022-11-15T01:05:47;11.70;76.60
58363;DHT22;54977;51.510;7.522;2022-11-15T01:10:49;11.80;76.50
58363;DHT22;54977;51.510;7.522;2022-11-15T01:15:52;12.00;76.00
58363;DHT22;54977;51.510;7.522;2022-11-15T01:20:54;11.90;76.00
58363;DHT22;54977;51.510;7.522;2022-11-15T01:25:58;12.00;75.80
58363;DHT22;54977;51.510;7.522;2022-11-15T01:31:09;12.30;75.60
58363;DHT22;54977;51.510;7.522;2022-11-15T01:36:14;12.40;75.10
58363;DHT22;54977;51.510;7.522;2022-11-15T01:41:17;12.50;75.00
58363;DHT22;54977;51.510;7.522;2022-11-15T01:46:29;12.60;74.80
58363;DHT22;54977;51.510;7.522;2022-11-15T01:51:33;12.80;74.60
58363;DHT22;54977;51.510;7.522;2022-11-15T01:56:37;12.80;74.20
58363;DHT22;54977;51.510;7.522;2022-11-15T02:01:43;12.80;74.20
58363;DHT22;54977;51.510;7.522;2022-11-15T02:06:47;12.80;74.30
58363;DHT22;54977;51.510;7.522;2022-11-15T02:11:50;12.80;74.20
58363;DHT22;54977;51.510;7.522;2022-11-15T02:16:59;12.80;74.00
58363;DHT22;54977;51.510;7.522;2022-11-15T02:22:12;12.70;74.40
58363;DHT22;54977;51.510;7.522;2022-11-15T02:27:42;12.70;74.70
58363;DHT22;54977;51.510;7.522;2022-11-15T02:32:52;12.80;74.60
58363;DHT22;54977;51.510;7.522;2022-11-15T02:37:58;12.80;74.30
58363;DHT22;54977;51.510;7.522;2022-11-15T02:43:07;12.80;74.50
58363;DHT22;54977;51.510;7.522;2022-11-15T02:48:30;12.80;74.30
58363;DHT22;54977;51.510;7.522;2022-11-15T02:53:33;12.70;74.60
58363;DHT22;54977;51.510;7.522;2022-11-15T02:58:52;12.60;74.60
58363;DHT22;54977;51.510;7.522;2022-11-15T03:04:10;12.60;74.70
58363;DHT22;54977;51.510;7.522;2022-11-15T03:09:26;12.50;74.90
58363;DHT22;54977;51.510;7.522;2022-11-15T03:14:35;12.50;74.80
58363;DHT22;54977;51.510;7.522;2022-11-15T03:19:43;12.50;74.90
58363;DHT22;54977;51.510;7.522;2022-11-15T03:24:50;12.60;74.70
58363;DHT22;54977;51.510;7.522;2022-11-15T03:29:55;12.40;75.50
58363;DHT22;54977;51.510;7.522;2022-11-15T03:35:02;12.50;75.70
58363;DHT22;54977;51.510;7.522;2022-11-15T03:40:07;12.50;75.70
58363;DHT22;54977;51.510;7.522;2022-11-15T03:45:13;12.60;75.50
58363;DHT22;54977;51.510;7.522;2022-11-15T03:50:19;12.80;75.40
58363;DHT22;54977;51.510;7.522;2022-11-15T03:55:22;12.90;75.20
58363;DHT22;54977;51.510;7.522;2022-11-15T04:00:24;12.90;75.10
58363;DHT22;54977;51.510;7.522;2022-11-15T04:05:27;12.90;75.10
58363;DHT22;54977;51.510;7.522;2022-11-15T04:10:29;13.00;75.10
58363;DHT22;54977;51.510;7.522;2022-11-15T04:15:31;13.10;74.90
58363;DHT22;54977;51.510;7.522;2022-11-15T04:20:34;13.10;74.90
58363;DHT22;54977;51.510;7.522;2022-11-15T04:25:54;13.00;75.20
58363;DHT22;54977;51.510;7.522;2022-11-15T04:30:57;13.10;74.70
58363;DHT22;54977;51.510;7.522;2022-11-15T04:36:00;13.10;74.70
58363;DHT22;54977;51.510;7.522;2022-11-15T04:41:19;13.00;75.10
58363;DHT22;54977;51.510;7.522;2022-11-15T04:46:22;13.10;74.90
58363;DHT22;54977;51.510;7.522;2022-11-15T04:51:26;13.10;74.90
58363;DHT22;54977;51.510;7.522;2022-11-15T04:56:28;13.20;74.70
58363;DHT22;54977;51.510;7.522;2022-11-15T05:01:29;13.20;74.50
58363;DHT22;54977;51.510;7.522;2022-11-15T05:06:33;13.20;74.30
58363;DHT22;54977;51.510;7.522;2022-11-15T05:11:35;13.20;74.50
58363;DHT22;54977;51.510;7.522;2022-11-15T05:16:37;13.20;74.60
58363;DHT22;54977;51.510;7.522;2022-11-15T05:21:40;13.30;74.40
58363;DHT22;54977;51.510;7.522;2022-11-15T05:26:42;13.20;74.50
58363;DHT22;54977;51.510;7.522;2022-11-15T05:31:44;13.20;74.50
58363;DHT22;54977;51.510;7.522;2022-11-15T05:36:47;13.10;75.10
58363;DHT22;54977;51.510;7.522;2022-11-15T05:41:52;13.00;75.50
58363;DHT22;54977;51.510;7.522;2022-11-15T05:46:56;13.00;75.70
58363;DHT22;54977;51.510;7.522;2022-11-15T05:52:00;13.10;75.70
58363;DHT22;54977;51.510;7.522;2022-11-15T05:57:05;13.20;75.40
58363;DHT22;54977;51.510;7.522;2022-11-15T06:02:07;13.20;75.20
58363;DHT22;54977;51.510;7.522;2022-11-15T06:07:10;13.20;75.80
58363;DHT22;54977;51.510;7.522;2022-11-15T06:12:12;13.20;75.20
58363;DHT22;54977;51.510;7.522;2022-11-15T06:17:14;12.90;76.10
58363;DHT22;54977;51.510;7.522;2022-11-15T06:22:17;13.10;75.60
58363;DHT22;54977;51.510;7.522;2022-11-15T06:27:19;13.20;75.50
58363;DHT22;54977;51.510;7.522;2022-11-15T06:32:21;13.20;75.40
58363;DHT22;54977;51.510;7.522;2022-11-15T06:37:24;13.10;75.60
58363;DHT22;54977;51.510;7.522;2022-11-15T06:42:26;13.20;75.60
58363;DHT22;54977;51.510;7.522;2022-11-15T06:47:28;13.20;75.90
58363;DHT22;54977;51.510;7.522;2022-11-15T06:52:32;13.00;76.00
58363;DHT22;54977;51.510;7.522;2022-11-15T06:57:34;13.20;75.50
58363;DHT22;54977;51.510;7.522;2022-11-15T07:02:35;13.00;75.50
58363;DHT22;54977;51.510;7.522;2022-11-15T07:07:39;13.20;75.10
58363;DHT22;54977;51.510;7.522;2022-11-15T07:12:41;13.20;74.90
58363;DHT22;54977;51.510;7.522;2022-11-15T07:17:43;13.40;74.30
58363;DHT22;54977;51.510;7.522;2022-11-15T07:22:46;13.50;73.80
58363;DHT22;54977;51.510;7.522;2022-11-15T07:27:54;13.50;73.70
58363;DHT22;54977;51.510;7.522;2022-11-15T07:32:57;13.60;73.30
58363;DHT22;54977;51.510;7.522;2022-11-15T07:38:02;13.60;72.70
58363;DHT22;54977;51.510;7.522;2022-11-15T07:43:05;13.50;72.80
58363;DHT22;54977;51.510;7.522;2022-11-15T07:48:07;13.40;72.50
58363;DHT22;54977;51.510;7.522;2022-11-15T07:53:10;13.30;72.40
58363;DHT22;54977;51.510;7.522;2022-11-15T07:58:12;13.30;72.20
58363;DHT22;54977;51.510;7.522;2022-11-15T08:03:15;13.20;72.30
58363;DHT22;54977;51.510;7.522;2022-11-15T08:08:19;13.20;72.30
58363;DHT22;54977;51.510;7.522;2022-11-15T08:13:21;13.30;71.90
58363;DHT22;54977;51.510;7.522;2022-11-15T08:18:23;13.40;71.50
58363;DHT22;54977;51.510;7.522;2022-11-15T08:23:26;13.40;71.00
58363;DHT22;54977;51.510;7.522;2022-11-15T08:28:28;13.40;70.50
58363;DHT22;54977;51.510;7.522;2022-11-15T08:33:31;13.70;69.60
58363;DHT22;54977;51.510;7.522;2022-11-15T08:38:34;13.70;69.10
58363;DHT22;54977;51.510;7.522;2022-11-15T08:43:36;14.00;68.10
58363;DHT22;54977;51.510;7.522;2022-11-15T08:48:38;14.10;67.80
58363;DHT22;54977;51.510;7.522;2022-11-15T08:53:41;14.40;66.20
58363;DHT22;54977;51.510;7.522;2022-11-15T08:58:43;14.50;65.70
58363;DHT22;54977;51.510;7.522;2022-11-15T09:03:45;14.80;65.00
58363;DHT22;54977;51.510;7.522;2022-11-15T09:08:48;15.30;63.90
58363;DHT22;54977;51.510;7.522;2022-11-15T09:13:50;15.50;61.20
58363;DHT22;54977;51.510;7.522;2022-11-15T09:18:52;15.60;61.00
58363;DHT22;54977;51.510;7.522;2022-11-15T09:23:56;15.70;61.70
58363;DHT22;54977;51.510;7.522;2022-11-15T09:28:57;16.00;60.10
58363;DHT22;54977;51.510;7.522;2022-11-15T09:33:59;16.10;59.90
58363;DHT22;54977;51.510;7.522;2022-11-15T09:39:03;15.70;59.80
58363;DHT22;54977;51.510;7.522;2022-11-15T09:44:16;15.50;60.50
58363;DHT22;54977;51.510;7.522;2022-11-15T09:49:21;15.20;61.40
58363;DHT22;54977;51.510;7.522;2022-11-15T09:54:29;14.90;61.50
58363;DHT22;54977;51.510;7.522;2022-11-15T09:59:49;14.90;60.70
58363;DHT22;54977;51.510;7.522;2022-11-15T10:04:54;15.00;60.10
58363;DHT22;54977;51.510;7.522;2022-11-15T10:10:04;14.90;60.20
58363;DHT22;54977;51.510;7.522;2022-11-15T10:15:13;14.80;59.80
58363;DHT22;54977;51.510;7.522;2022-11-15T10:20:19;15.10;58.90
58363;DHT22;54977;51.510;7.522;2022-11-15T10:25:25;15.00;58.80
58363;DHT22;54977;51.510;7.522;2022-11-15T10:30:33;15.10;58.90
58363;DHT22;54977;51.510;7.522;2022-11-15T10:35:35;15.00;59.20
58363;DHT22;54977;51.510;7.522;2022-11-15T10:40:40;14.80;59.20
58363;DHT22;54977;51.510;7.522;2022-11-15T10:45:45;15.00;58.50
58363;DHT22;54977;51.510;7.522;2022-11-15T10:50:48;15.10;57.90
58363;DHT22;54977;51.510;7.522;2022-11-15T10:55:54;15.20;57.40
58363;DHT22;54977;51.510;7.522;2022-11-15T11:01:08;14.90;58.80
58363;DHT22;54977;51.510;7.522;2022-11-15T11:06:13;15.00;58.60
58363;DHT22;54977;51.510;7.522;2022-11-15T11:11:17;14.90;57.20
58363;DHT22;54977;51.510;7.522;2022-11-15T11:21:49;15.00;57.40
58363;DHT22;54977;51.510;7.522;2022-11-15T11:27:04;14.90;57.60
58363;DHT22;54977;51.510;7.522;2022-11-15T11:32:23;15.00;57.00
58363;DHT22;54977;51.510;7.522;2022-11-15T11:37:31;14.90;56.50
58363;DHT22;54977;51.510;7.522;2022-11-15T11:42:45;15.00;56.10
58363;DHT22;54977;51.510;7.522;2022-11-15T11:47:53;14.90;55.00
58363;DHT22;54977;51.510;7.522;2022-11-15T11:52:59;15.00;54.40
58363;DHT22;54977;51.510;7.522;2022-11-15T11:58:13;15.00;52.90
58363;DHT22;54977;51.510;7.522;2022-11-15T12:03:22;15.10;53.00
58363;DHT22;54977;51.510;7.522;2022-11-15T12:08:35;14.90;51.50
58363;DHT22;54977;51.510;7.522;2022-11-15T12:13:43;15.10;51.70
58363;DHT22;54977;51.510;7.522;2022-11-15T12:18:50;15.30;49.60
58363;DHT22;54977;51.510;7.522;2022-11-15T12:23:55;15.60;48.40
58363;DHT22;54977;51.510;7.522;2022-11-15T12:29:04;15.60;48.40
58363;DHT22;54977;51.510;7.522;2022-11-15T12:34:29;15.50;49.00
58363;DHT22;54977;51.510;7.522;2022-11-15T12:40:03;15.60;46.10
58363;DHT22;54977;51.510;7.522;2022-11-15T12:45:26;15.70;46.10
58363;DHT22;54977;51.510;7.522;2022-11-15T12:50:52;15.50;47.70
58363;DHT22;54977;51.510;7.522;2022-11-15T12:56:23;15.60;46.80
58363;DHT22;54977;51.510;7.522;2022-11-15T13:01:58;15.70;47.20
58363;DHT22;54977;51.510;7.522;2022-11-15T13:07:01;15.70;47.60
58363;DHT22;54977;51.510;7.522;2022-11-15T13:12:07;15.60;48.60
58363;DHT22;54977;51.510;7.522;2022-11-15T13:17:30;15.30;50.10
58363;DHT22;54977;51.510;7.522;2022-11-15T13:22:39;15.40;50.70
58363;DHT22;54977;51.510;7.522;2022-11-15T13:27:55;15.30;51.30
58363;DHT22;54977;51.510;7.522;2022-11-15T13:33:06;15.30;51.60
58363;DHT22;54977;51.510;7.522;2022-11-15T13:38:18;15.30;51.80
58363;DHT22;54977;51.510;7.522;2022-11-15T13:43:32;15.30;52.00
58363;DHT22;54977;51.510;7.522;2022-11-15T13:48:37;15.30;52.30
58363;DHT22;54977;51.510;7.522;2022-11-15T13:53:43;15.20;52.50
58363;DHT22;54977;51.510;7.522;2022-11-15T13:58:48;15.10;52.80
58363;DHT22;54977;51.510;7.522;2022-11-15T14:03:54;15.10;52.80
58363;DHT22;54977;51.510;7.522;2022-11-15T14:14:16;14.90;53.70
58363;DHT22;54977;51.510;7.522;2022-11-15T14:19:36;14.60;54.50
58363;DHT22;54977;51.510;7.522;2022-11-15T14:24:39;14.70;55.00
58363;DHT22;54977;51.510;7.522;2022-11-15T14:29:42;14.70;54.90
58363;DHT22;54977;51.510;7.522;2022-11-15T14:34:45;14.80;55.30
58363;DHT22;54977;51.510;7.522;2022-11-15T14:39:47;14.80;55.20
58363;DHT22;54977;51.510;7.522;2022-11-15T14:44:50;14.80;55.40
58363;DHT22;54977;51.510;7.522;2022-11-15T14:49:53;14.60;55.70
58363;DHT22;54977;51.510;7.522;2022-11-15T14:54:55;14.70;55.80
58363;DHT22;54977;51.510;7.522;2022-11-15T14:59:58;14.80;55.60
58363;DHT22;54977;51.510;7.522;2022-11-15T15:05:07;14.80;55.60
58363;DHT22;54977;51.510;7.522;2022-11-15T15:10:14;14.80;56.10
58363;DHT22;54977;51.510;7.522;2022-11-15T15:15:20;14.70;56.20
58363;DHT22;54977;51.510;7.522;2022-11-15T15:20:24;14.50;56.50
58363;DHT22;54977;51.510;7.522;2022-11-15T15:25:28;14.50;56.90
58363;DHT22;54977;51.510;7.522;2022-11-15T15:30:30;14.30;57.10
58363;DHT22;54977;51.510;7.522;2022-11-15T15:35:34;13.90;57.60
58363;DHT22;54977;51.510;7.522;2022-11-15T15:40:37;13.90;58.40
58363;DHT22;54977;51.510;7.522;2022-11-15T15:45:40;14.10;58.40
58363;DHT22;54977;51.510;7.522;2022-11-15T15:50:43;14.20;58.50
58363;DHT22;54977;51.510;7.522;2022-11-15T15:55:45;14.00;58.70
58363;DHT22;54977;51.510;7.522;2022-11-15T16:00:47;14.10;59.10
58363;DHT22;54977;51.510;7.522;2022-11-15T16:05:51;14.10;59.00
58363;DHT22;54977;51.510;7.522;2022-11-15T16:10:52;14.00;59.20
58363;DHT22;54977;51.510;7.522;2022-11-15T16:15:54;13.90;59.40
58363;DHT22;54977;51.510;7.522;2022-11-15T16:20:58;14.00;59.80
58363;DHT22;54977;51.510;7.522;2022-11-15T16:26:00;14.00;60.50
58363;DHT22;54977;51.510;7.522;2022-11-15T16:31:05;13.90;59.40
58363;DHT22;54977;51.510;7.522;2022-11-15T16:36:18;13.70;60.40
58363;DHT22;54977;51.510;7.522;2022-11-15T16:41:21;13.70;60.90
58363;DHT22;54977;51.510;7.522;2022-11-15T16:46:24;14.00;60.20
58363;DHT22;54977;51.510;7.522;2022-11-15T16:51:28;14.00;60.10
58363;DHT22;54977;51.510;7.522;2022-11-15T16:56:30;13.90;60.30
58363;DHT22;54977;51.510;7.522;2022-11-15T17:01:33;13.90;60.20
58363;DHT22;54977;51.510;7.522;2022-11-15T17:06:37;13.70;60.60
58363;DHT22;54977;51.510;7.522;2022-11-15T17:11:40;13.70;60.60
58363;DHT22;54977;51.510;7.522;2022-11-15T17:16:42;14.00;61.20
58363;DHT22;54977;51.510;7.522;2022-11-15T17:21:47;13.80;60.90
58363;DHT22;54977;51.510;7.522;2022-11-15T17:26:49;14.00;60.90
58363;DHT22;54977;51.510;7.522;2022-11-15T17:31:51;14.10;60.50
58363;DHT22;54977;51.510;7.522;2022-11-15T17:36:54;14.10;60.40
58363;DHT22;54977;51.510;7.522;2022-11-15T17:41:56;13.90;60.80
58363;DHT22;54977;51.510;7.522;2022-11-15T17:46:58;13.90;60.80
58363;DHT22;54977;51.510;7.522;2022-11-15T17:52:01;14.10;60.90
58363;DHT22;54977;51.510;7.522;2022-11-15T17:57:03;13.80;61.00
58363;DHT22;54977;51.510;7.522;2022-11-15T18:02:05;14.10;60.80
58363;DHT22;54977;51.510;7.522;2022-11-15T18:07:08;14.20;60.70
58363;DHT22;54977;51.510;7.522;2022-11-15T18:12:11;14.00;60.80
58363;DHT22;54977;51.510;7.522;2022-11-15T18:17:13;14.00;61.10
58363;DHT22;54977;51.510;7.522;2022-11-15T18:22:19;14.10;61.30
58363;DHT22;54977;51.510;7.522;2022-11-15T18:27:21;14.00;61.40
58363;DHT22;54977;51.510;7.522;2022-11-15T18:32:23;14.10;61.60
58363;DHT22;54977;51.510;7.522;2022-11-15T18:37:26;14.50;60.80
58363;DHT22;54977;51.510;7.522;2022-11-15T18:42:28;14.40;61.10
58363;DHT22;54977;51.510;7.522;2022-11-15T18:47:32;14.30;61.60
58363;DHT22;54977;51.510;7.522;2022-11-15T18:52:35;14.20;61.90
58363;DHT22;54977;51.510;7.522;2022-11-15T18:57:37;14.20;62.10
58363;DHT22;54977;51.510;7.522;2022-11-15T19:02:40;14.10;62.50
58363;DHT22;54977;51.510;7.522;2022-11-15T19:07:46;14.20;63.40
58363;DHT22;54977;51.510;7.522;2022-11-15T19:12:48;14.30;62.80
58363;DHT22;54977;51.510;7.522;2022-11-15T19:17:50;14.30;63.50
58363;DHT22;54977;51.510;7.522;2022-11-15T19:22:53;14.20;64.20
58363;DHT22;54977;51.510;7.522;2022-11-15T19:27:56;13.90;65.00
58363;DHT22;54977;51.510;7.522;2022-11-15T19:32:58;13.80;65.10
58363;DHT22;54977;51.510;7.522;2022-11-15T19:38:01;13.70;65.50
58363;DHT22;54977;51.510;7.522;2022-11-15T19:43:03;13.40;66.40
58363;DHT22;54977;51.510;7.522;2022-11-15T19:48:05;13.30;67.00
58363;DHT22;54977;51.510;7.522;2022-11-15T19:53:08;13.60;66.60
58363;DHT22;54977;51.510;7.522;2022-11-15T19:58:10;13.50;66.70
58363;DHT22;54977;51.510;7.522;2022-11-15T20:03:12;13.50;67.00
58363;DHT22;54977;51.510;7.522;2022-11-15T20:08:15;13.80;66.00
58363;DHT22;54977;51.510;7.522;2022-11-15T20:13:17;13.80;65.80
58363;DHT22;54977;51.510;7.522;2022-11-15T20:18:19;13.90;65.80
58363;DHT22;54977;51.510;7.522;2022-11-15T20:23:23;13.80;66.20
58363;DHT22;54977;51.510;7.522;2022-11-15T20:28:26;13.90;65.80
58363;DHT22;54977;51.510;7.522;2022-11-15T20:33:28;13.90;66.30
58363;DHT22;54977;51.510;7.522;2022-11-15T20:38:32;13.90;66.40
58363;DHT22;54977;51.510;7.522;2022-11-15T20:43:34;13.80;67.10
58363;DHT22;54977;51.510;7.522;2022-11-15T20:48:36;13.80;67.20
58363;DHT22;54977;51.510;7.522;2022-11-15T20:53:39;13.90;66.90
58363;DHT22;54977;51.510;7.522;2022-11-15T20:58:42;13.80;67.10
58363;DHT22;54977;51.510;7.522;2022-11-15T21:03:44;14.00;66.70
58363;DHT22;54977;51.510;7.522;2022-11-15T21:08:48;13.90;66.80
58363;DHT22;54977;51.510;7.522;2022-11-15T21:14:08;13.90;66.90
58363;DHT22;54977;51.510;7.522;2022-11-15T21:19:10;13.90;67.10
58363;DHT22;54977;51.510;7.522;2022-11-15T21:24:13;13.80;67.20
58363;DHT22;54977;51.510;7.522;2022-11-15T21:29:15;13.90;67.70
58363;DHT22;54977;51.510;7.522;2022-11-15T21:34:17;13.90;67.10
58363;DHT22;54977;51.510;7.522;2022-11-15T21:39:21;14.00;67.00
58363;DHT22;54977;51.510;7.522;2022-11-15T21:44:23;13.90;67.00
58363;DHT22;54977;51.510;7.522;2022-11-15T21:49:25;14.00;67.20
58363;DHT22;54977;51.510;7.522;2022-11-15T21:54:28;13.90;67.20
58363;DHT22;54977;51.510;7.522;2022-11-15T21:59:30;13.90;67.60
58363;DHT22;54977;51.510;7.522;2022-11-15T22:04:31;13.90;67.50
58363;DHT22;54977;51.510;7.522;2022-11-15T22:09:35;13.80;67.60
58363;DHT22;54977;51.510;7.522;2022-11-15T22:14:36;13.90;67.80
58363;DHT22;54977;51.510;7.522;2022-11-15T22:19:38;13.90;67.70
58363;DHT22;54977;51.510;7.522;2022-11-15T22:24:42;13.70;68.30
58363;DHT22;54977;51.510;7.522;2022-11-15T22:29:44;13.70;68.00
58363;DHT22;54977;51.510;7.522;2022-11-15T22:34:46;13.80;68.00
58363;DHT22;54977;51.510;7.522;2022-11-15T22:39:49;14.00;68.00
58363;DHT22;54977;51.510;7.522;2022-11-15T22:44:51;14.00;67.80
58363;DHT22;54977;51.510;7.522;2022-11-15T22:49:53;14.00;67.60
58363;DHT22;54977;51.510;7.522;2022-11-15T22:54:57;14.10;67.60
58363;DHT22;54977;51.510;7.522;2022-11-15T22:59:59;14.10;67.70
58363;DHT22;54977;51.510;7.522;2022-11-15T23:05:01;14.00;68.80
58363;DHT22;54977;51.510;7.522;2022-11-15T23:10:05;13.90;69.20
58363;DHT22;54977;51.510;7.522;2022-11-15T23:15:25;13.90;70.30
58363;DHT22;54977;51.510;7.522;2022-11-15T23:20:47;13.80;70.70
58363;DHT22;54977;51.510;7.522;2022-11-15T23:25:57;13.60;71.30
58363;DHT22;54977;51.510;7.522;2022-11-15T23:31:03;13.50;72.10
58363;DHT22;54977;51.510;7.522;2022-11-15T23:36:23;13.10;73.60
58363;DHT22;54977;51.510;7.522;2022-11-15T23:41:27;13.10;74.10
58363;DHT22;54977;51.510;7.522;2022-11-15T23:46:29;13.10;74.70
58363;DHT22;54977;51.510;7.522;2022-11-15T23:51:31;13.10;74.70
58363;DHT22;54977;51.510;7.522;2022-11-15T23:56:34;13.00;75.30
